createdAt,value
2023-02-03T00:01:04.567Z,2.10
2023-02-03T00:04:08.008Z,2.20
2023-02-03T00:07:14.065Z,2.45
2023-02-03T00:10:21.646Z,2.22
2023-02-03T00:13:26.763Z,2.28
2023-02-03T00:16:30.212Z,2.45
2023-02-03T00:19:33.926Z,2.27
2023-02-03T00:22:37.514Z,2.15
2023-02-03T00:25:41.237Z,2.55
2023-02-03T00:28:45.418Z,1.95
2023-02-03T00:31:49.359Z,2.20
2023-02-03T00:34:52.867Z,1.75
2023-02-03T00:37:57.563Z,2.55
2023-02-03T00:41:01.058Z,1.50
2023-02-03T00:44:04.561Z,2.60
2023-02-03T00:47:08.603Z,1.90
2023-02-03T00:50:12.288Z,2.67
2023-02-03T00:53:16.098Z,2.55
2023-02-03T00:56:19.847Z,1.98
2023-02-03T00:59:23.265Z,2.43
2023-02-03T01:02:26.915Z,2.17
2023-02-03T01:05:30.772Z,2.70
2023-02-03T01:08:35.819Z,2.30
2023-02-03T01:11:39.282Z,2.67
2023-02-03T01:14:44.347Z,2.50
2023-02-03T01:17:47.854Z,2.53
2023-02-03T01:20:51.262Z,2.50
2023-02-03T01:23:55.213Z,2.60
2023-02-03T01:26:58.818Z,2.50
2023-02-03T01:30:02.204Z,2.17
2023-02-03T01:33:06.963Z,2.38
2023-02-03T01:36:11.134Z,2.33
2023-02-03T01:39:15.013Z,2.10
2023-02-03T01:42:18.535Z,2.25
2023-02-03T01:45:23.230Z,2.42
2023-02-03T01:48:26.823Z,1.90
2023-02-03T01:51:31.451Z,2.30
2023-02-03T01:54:38.897Z,2.28
2023-02-03T01:57:52.615Z,2.35
2023-02-03T02:00:57.695Z,2.15
2023-02-03T02:04:03.916Z,2.28
2023-02-03T02:07:08.450Z,2.25
2023-02-03T02:10:12.285Z,2.20
2023-02-03T02:13:20.165Z,2.27
2023-02-03T02:16:32.143Z,2.28
2023-02-03T02:20:13.560Z,1.98
2023-02-03T02:23:35.482Z,2.20
2023-02-03T02:27:08.310Z,1.80
2023-02-03T02:30:17.975Z,2.08
2023-02-03T02:33:46.267Z,1.30
2023-02-03T02:37:04.446Z,2.03
2023-02-03T02:40:24.159Z,1.97
2023-02-03T02:43:39.743Z,1.92
2023-02-03T02:47:00.255Z,2.00
2023-02-03T02:50:20.357Z,2.30
2023-02-03T02:53:28.180Z,2.47
2023-02-03T02:56:34.632Z,2.00
2023-02-03T02:59:38.204Z,2.10
2023-02-03T03:02:41.744Z,2.47
2023-02-03T03:05:51.083Z,2.00
2023-02-03T03:09:02.776Z,2.70
2023-02-03T03:12:29.985Z,2.17
2023-02-03T03:15:35.255Z,2.15
2023-02-03T03:18:49.359Z,2.20
2023-02-03T03:21:59.204Z,1.33
2023-02-03T03:25:22.991Z,2.15
2023-02-03T03:28:35.501Z,2.50
2023-02-03T03:31:40.817Z,2.37
2023-02-03T03:34:44.636Z,2.03
2023-02-03T03:38:04.587Z,2.33
2023-02-03T03:41:23.231Z,2.00
2023-02-03T03:44:34.175Z,1.77
2023-02-03T03:47:46.164Z,2.38
2023-02-03T03:50:58.460Z,2.70
2023-02-03T03:54:07.613Z,2.53
2023-02-03T03:57:19.845Z,2.07
2023-02-03T04:00:26.155Z,2.13
2023-02-03T04:03:38.183Z,2.78
2023-02-03T04:06:43.976Z,2.40
2023-02-03T04:09:47.587Z,2.13
2023-02-03T04:12:51.204Z,2.00
2023-02-03T04:15:54.713Z,1.98
2023-02-03T04:18:58.463Z,2.08
2023-02-03T04:22:01.868Z,2.20
2023-02-03T04:25:05.679Z,1.83
2023-02-03T04:28:09.249Z,2.17
2023-02-03T04:31:12.930Z,1.50
2023-02-03T04:34:16.358Z,1.77
2023-02-03T04:37:21.228Z,1.45
2023-02-03T04:40:26.064Z,2.55
2023-02-03T04:43:29.782Z,2.13
2023-02-03T04:46:33.190Z,2.17
2023-02-03T04:49:36.798Z,2.17
2023-02-03T04:52:40.219Z,2.10
2023-02-03T04:55:50.118Z,2.47
2023-02-03T04:58:53.677Z,2.53
2023-02-03T05:01:58.249Z,2.08
2023-02-03T05:05:01.742Z,2.78
2023-02-03T05:08:05.513Z,2.77
2023-02-03T05:11:09.007Z,2.67
2023-02-03T05:14:12.434Z,2.60
2023-02-03T05:17:15.844Z,3.42
2023-02-03T05:20:19.556Z,2.27
2023-02-03T05:23:22.976Z,2.90
2023-02-03T05:26:26.461Z,2.60
2023-02-03T05:29:29.962Z,2.60
2023-02-03T05:32:33.524Z,2.90
2023-02-03T05:35:37.096Z,4.80
2023-02-03T05:38:42.108Z,5.80
2023-02-03T05:41:56.563Z,5.82
2023-02-03T05:45:01.585Z,3.57
2023-02-03T05:48:05.367Z,2.75
2023-02-03T05:51:08.830Z,3.03
2023-02-03T05:54:12.449Z,3.60
2023-02-03T05:57:16.121Z,3.13
2023-02-03T06:00:21.591Z,2.42
2023-02-03T06:03:25.166Z,3.30
2023-02-03T06:06:33.940Z,3.08
2023-02-03T06:09:37.326Z,2.92
2023-02-03T06:12:41.300Z,2.60
2023-02-03T06:15:45.307Z,3.00
2023-02-03T06:18:49.326Z,3.22
2023-02-03T06:21:52.720Z,3.57
2023-02-03T06:24:56.128Z,4.70
2023-02-03T06:28:00.215Z,4.50
2023-02-03T06:31:04.327Z,2.60
2023-02-03T06:34:07.797Z,2.88
2023-02-03T06:37:11.359Z,3.30
2023-02-03T06:40:14.877Z,2.83
2023-02-03T06:43:19.162Z,2.70
2023-02-03T06:46:22.999Z,3.33
2023-02-03T06:49:26.937Z,3.05
2023-02-03T06:52:30.606Z,3.30
2023-02-03T06:55:34.211Z,2.50
2023-02-03T06:58:37.830Z,3.55
2023-02-03T07:01:41.314Z,4.60
2023-02-03T07:04:45.390Z,5.75
2023-02-03T07:07:49.123Z,5.50
2023-02-03T07:10:56.145Z,4.10
2023-02-03T07:13:59.847Z,2.80
2023-02-03T07:17:03.721Z,2.72
2023-02-03T07:20:07.759Z,2.60
2023-02-03T07:23:11.246Z,3.53
2023-02-03T07:26:14.739Z,7.35
2023-02-03T07:29:18.270Z,13.07
2023-02-03T07:32:21.939Z,11.10
2023-02-03T07:35:26.024Z,10.43
2023-02-03T07:38:30.070Z,10.17
2023-02-03T07:41:33.780Z,8.25
2023-02-03T07:44:37.138Z,11.68
2023-02-03T07:47:42.562Z,10.73
2023-02-03T07:50:47.628Z,20.00
2023-02-03T07:53:51.070Z,25.17
2023-02-03T07:56:54.587Z,20.73
2023-02-03T07:59:58.047Z,13.57
2023-02-03T08:03:01.631Z,11.75
2023-02-03T08:06:05.338Z,9.88
2023-02-03T08:09:08.759Z,17.77
2023-02-03T08:12:12.477Z,14.87
2023-02-03T08:15:17.460Z,11.10
2023-02-03T08:18:21.161Z,6.85
2023-02-03T08:21:24.617Z,4.10
2023-02-03T08:24:28.164Z,4.00
2023-02-03T08:27:33.035Z,4.50
2023-02-03T08:30:36.638Z,3.67
2023-02-03T08:33:40.834Z,3.38
2023-02-03T08:36:49.366Z,3.78
2023-02-03T08:39:53.814Z,2.63
2023-02-03T08:47:59.101Z,2.80
2023-02-03T08:51:03.011Z,3.30
2023-02-03T08:54:06.615Z,3.13
2023-02-03T08:57:10.648Z,3.20
2023-02-03T09:00:14.632Z,2.60
2023-02-03T09:03:18.110Z,3.05
2023-02-03T09:06:23.791Z,3.45
2023-02-03T09:09:29.198Z,3.72
2023-02-03T09:12:32.660Z,3.53
2023-02-03T09:15:37.082Z,3.90
2023-02-03T09:18:41.168Z,3.40
2023-02-03T09:21:48.109Z,3.55
2023-02-03T09:24:52.066Z,3.97
2023-02-03T09:27:55.675Z,2.80
2023-02-03T09:31:06.921Z,3.80
2023-02-03T09:34:11.019Z,3.13
2023-02-03T09:37:15.248Z,3.78
2023-02-03T09:40:28.928Z,3.60
2023-02-03T09:43:38.699Z,7.47
2023-02-03T09:46:46.332Z,11.93
2023-02-03T09:49:56.026Z,5.55
2023-02-03T09:53:04.025Z,7.43
2023-02-03T09:56:12.648Z,5.10
2023-02-03T09:59:16.359Z,6.67
2023-02-03T10:02:50.718Z,7.53
2023-02-03T10:06:08.183Z,6.85
2023-02-03T10:09:44.238Z,5.85
2023-02-03T10:12:59.517Z,6.20
2023-02-03T10:16:15.048Z,4.50
2023-02-03T10:19:24.102Z,3.30
2023-02-03T10:22:29.966Z,2.90
2023-02-03T10:25:45.992Z,4.60
2023-02-03T10:28:55.807Z,3.00
2023-02-03T10:32:00.600Z,4.53
2023-02-03T10:35:10.894Z,4.30
2023-02-03T10:38:28.919Z,5.10
2023-02-03T10:41:33.472Z,4.97
2023-02-03T10:45:11.714Z,5.00
2023-02-03T10:53:47.224Z,4.83
2023-02-03T10:56:50.836Z,4.38
2023-02-03T11:00:06.236Z,13.23
2023-02-03T11:03:29.415Z,9.18
2023-02-03T11:06:34.089Z,8.73
2023-02-03T11:09:43.056Z,7.17
2023-02-03T11:12:46.587Z,4.80
2023-02-03T11:15:56.198Z,4.75
2023-02-03T11:19:22.801Z,4.50
2023-02-03T11:22:40.638Z,3.50
2023-02-03T11:25:46.907Z,3.00
2023-02-03T11:28:53.570Z,2.85
2023-02-03T11:32:00.122Z,3.70
2023-02-03T11:35:16.464Z,3.90
2023-02-03T11:38:38.819Z,3.90
2023-02-03T11:41:43.074Z,3.40
2023-02-03T11:44:46.497Z,3.72
2023-02-03T11:47:55.361Z,4.30
2023-02-03T11:51:11.351Z,3.88
2023-02-03T11:54:41.201Z,3.30
2023-02-03T11:58:11.840Z,3.80
2023-02-03T12:01:45.678Z,3.10
2023-02-03T12:04:52.224Z,3.45
2023-02-03T12:08:20.363Z,3.55
2023-02-03T12:11:49.102Z,4.73
2023-02-03T12:15:01.379Z,6.05
2023-02-03T12:18:28.063Z,3.35
2023-02-03T12:21:55.584Z,4.25
2023-02-03T12:25:16.364Z,3.05
2023-02-03T12:28:33.212Z,2.97
2023-02-03T12:32:15.387Z,4.20
2023-02-03T12:35:54.944Z,6.88
2023-02-03T12:39:11.245Z,4.38
2023-02-03T12:42:31.778Z,2.45
2023-02-03T12:45:38.520Z,4.10
2023-02-03T12:49:00.587Z,3.80
2023-02-03T12:52:26.936Z,5.10
2023-02-03T12:55:43.576Z,3.78
2023-02-03T12:58:58.792Z,5.07
2023-02-03T13:02:24.480Z,4.23
2023-02-03T13:05:51.053Z,4.20
2023-02-03T13:09:21.905Z,2.63
2023-02-03T13:12:32.553Z,3.47
2023-02-03T13:15:44.093Z,3.50
2023-02-03T13:18:55.835Z,3.80
2023-02-03T13:21:59.428Z,4.93
2023-02-03T13:25:05.840Z,4.47
2023-02-03T13:28:22.775Z,4.28
2023-02-03T13:31:38.056Z,3.85
2023-02-03T13:34:50.585Z,4.70
2023-02-03T13:37:57.389Z,3.90
2023-02-03T13:41:28.712Z,3.58
2023-02-03T13:44:32.504Z,4.75
2023-02-03T13:47:36.107Z,3.80
2023-02-03T13:50:40.344Z,4.30
2023-02-03T13:53:45.979Z,3.92
2023-02-03T13:57:02.872Z,3.50
2023-02-03T14:00:29.149Z,2.92
2023-02-03T14:03:32.658Z,3.40
2023-02-03T14:06:38.931Z,3.00
2023-02-03T14:09:45.597Z,2.40
2023-02-03T14:12:51.740Z,2.55
2023-02-03T14:16:25.510Z,2.30
2023-02-03T14:19:52.015Z,2.50
2023-02-03T14:23:09.250Z,3.17
2023-02-03T14:26:24.626Z,3.50
2023-02-03T14:29:36.688Z,4.15
2023-02-03T14:32:56.712Z,5.82
2023-02-03T14:36:00.249Z,6.93
2023-02-03T14:39:25.704Z,5.27
2023-02-03T14:43:04.903Z,3.67
2023-02-03T14:46:22.129Z,4.63
2023-02-03T14:49:37.442Z,2.80
2023-02-03T14:53:14.884Z,2.70
2023-02-03T14:57:07.345Z,3.50
2023-02-03T15:00:28.147Z,3.17
2023-02-03T15:03:32.214Z,4.18
2023-02-03T15:06:50.079Z,3.75
2023-02-03T15:09:56.655Z,3.40
2023-02-03T15:13:00.214Z,3.00
2023-02-03T15:16:06.021Z,3.38
2023-02-03T15:19:18.878Z,3.85
2023-02-03T15:22:22.531Z,4.70
2023-02-03T15:25:28.878Z,4.53
2023-02-03T15:28:32.609Z,3.90
2023-02-03T15:31:44.957Z,4.32
2023-02-03T15:34:49.287Z,5.45
2023-02-03T15:38:00.905Z,5.72
2023-02-03T15:41:07.992Z,7.38
2023-02-03T15:44:30.138Z,5.37
2023-02-03T15:47:35.434Z,5.80
2023-02-03T15:50:49.134Z,8.27
2023-02-03T15:53:59.407Z,8.45
2023-02-03T15:57:12.347Z,7.28
2023-02-03T16:00:40.649Z,7.10
2023-02-03T16:03:53.253Z,6.55
2023-02-03T16:06:57.349Z,5.38
2023-02-03T16:10:01.294Z,7.05
2023-02-03T16:13:22.026Z,5.25
2023-02-03T16:16:30.568Z,5.37
2023-02-03T16:19:38.593Z,6.60
2023-02-03T16:22:47.558Z,6.63
2023-02-03T16:26:20.956Z,7.97
2023-02-03T16:29:48.500Z,9.75
2023-02-03T16:33:28.257Z,7.50
2023-02-03T16:36:50.280Z,6.47
2023-02-03T16:40:12.387Z,5.00
2023-02-03T16:43:36.296Z,6.13
2023-02-03T16:46:58.526Z,5.88
2023-02-03T16:50:32.736Z,4.80
2023-02-03T16:53:41.024Z,4.63
2023-02-03T16:56:44.825Z,4.37
2023-02-03T16:59:48.488Z,5.40
2023-02-03T17:02:52.784Z,5.93
2023-02-03T17:05:57.607Z,4.72
2023-02-03T17:09:01.590Z,5.20
2023-02-03T17:12:05.290Z,5.22
2023-02-03T17:15:09.304Z,4.80
2023-02-03T17:18:15.150Z,5.53
2023-02-03T17:21:22.650Z,5.77
2023-02-03T17:24:26.156Z,4.90
2023-02-03T17:27:29.922Z,6.57
2023-02-03T17:30:35.338Z,7.97
2023-02-03T17:33:39.072Z,5.63
2023-02-03T17:36:42.650Z,6.70
2023-02-03T17:56:24.340Z,11.00
2023-02-03T17:59:28.026Z,6.63
2023-02-03T18:02:31.608Z,7.60
2023-02-03T18:05:37.118Z,5.28
2023-02-03T18:08:41.416Z,8.30
2023-02-03T18:11:46.153Z,9.02
2023-02-03T18:14:49.800Z,9.98
2023-02-03T18:17:53.213Z,11.43
2023-02-03T18:20:56.930Z,7.10
2023-02-03T18:24:02.035Z,8.02
2023-02-03T18:27:05.900Z,9.35
2023-02-03T18:30:11.720Z,5.95
2023-02-03T18:33:16.452Z,8.13
2023-02-03T18:36:20.636Z,7.28
2023-02-03T18:39:24.391Z,6.68
2023-02-03T18:42:28.044Z,8.52
2023-02-03T18:45:34.566Z,6.65
2023-02-03T18:48:41.047Z,5.30
2023-02-03T18:51:44.646Z,5.82
2023-02-03T18:54:48.115Z,7.43
2023-02-03T18:57:52.531Z,4.63
2023-02-03T19:00:56.347Z,6.05
2023-02-03T19:04:03.005Z,3.95
2023-02-03T19:07:06.951Z,4.03
2023-02-03T19:10:10.860Z,5.00
2023-02-03T19:13:14.580Z,3.45
2023-02-03T19:16:18.852Z,3.97
2023-02-03T19:19:22.772Z,4.55
2023-02-03T19:22:26.522Z,4.78
2023-02-03T19:25:30.464Z,4.85
2023-02-03T19:28:35.357Z,5.15
2023-02-03T19:31:40.747Z,3.90
2023-02-03T19:34:44.328Z,5.20
2023-02-03T19:37:47.981Z,5.70
2023-02-03T19:40:51.715Z,6.35
2023-02-03T19:43:55.403Z,6.05
2023-02-03T19:46:59.268Z,5.17
2023-02-03T19:50:02.738Z,4.63
2023-02-03T19:53:08.591Z,5.20
2023-02-03T19:56:12.529Z,5.82
2023-02-03T19:59:16.515Z,7.07
2023-02-03T20:02:20.925Z,7.15
2023-02-03T20:05:24.463Z,4.13
2023-02-03T20:08:28.283Z,4.18
2023-02-03T20:11:32.058Z,2.83
2023-02-03T20:14:35.788Z,3.42
2023-02-03T20:17:39.314Z,2.75
2023-02-03T20:20:42.935Z,3.00
2023-02-03T20:23:46.472Z,3.60
2023-02-03T20:26:50.385Z,3.17
2023-02-03T20:29:54.374Z,4.10
2023-02-03T20:32:58.222Z,5.68
2023-02-03T20:36:02.048Z,2.40
2023-02-03T20:39:06.622Z,1.65
2023-02-03T20:42:17.506Z,1.90
2023-02-03T20:45:24.240Z,4.28
2023-02-03T20:48:28.386Z,3.03
2023-02-03T20:51:32.353Z,2.43
2023-02-03T20:54:37.296Z,2.50
2023-02-03T20:57:41.411Z,2.63
2023-02-03T21:00:46.545Z,2.72
2023-02-03T21:04:10.244Z,2.80
2023-02-03T21:07:16.139Z,2.85
2023-02-03T21:10:22.852Z,2.65
2023-02-03T21:13:30.261Z,4.35
2023-02-03T21:16:38.726Z,6.15
2023-02-03T21:19:42.708Z,5.10
2023-02-03T21:22:46.067Z,3.65
2023-02-03T21:25:49.864Z,4.30
2023-02-03T21:28:57.562Z,4.28
2023-02-03T21:32:01.978Z,4.05
2023-02-03T21:35:32.259Z,5.07
2023-02-03T21:38:36.125Z,4.88
2023-02-03T21:41:39.834Z,5.15
2023-02-03T21:44:44.353Z,4.15
2023-02-03T21:47:49.497Z,4.30
2023-02-03T21:50:54.933Z,5.00
2023-02-03T21:54:03.462Z,4.80
2023-02-03T21:57:17.331Z,4.10
2023-02-03T22:00:43.016Z,7.18
2023-02-03T22:03:51.493Z,7.72
2023-02-03T22:06:56.174Z,5.20
2023-02-03T22:09:59.856Z,7.57
2023-02-03T22:13:04.201Z,7.43
2023-02-03T22:16:07.852Z,9.00
2023-02-03T22:19:11.735Z,7.53
2023-02-03T22:22:15.203Z,6.75
2023-02-03T22:25:18.588Z,7.70
2023-02-03T22:28:22.207Z,6.93
2023-02-03T22:31:25.755Z,6.28
2023-02-03T22:34:29.247Z,6.73
2023-02-03T22:37:33.400Z,6.25
2023-02-03T22:40:36.885Z,6.68
2023-02-03T22:43:40.727Z,6.25
2023-02-03T22:46:44.206Z,7.97
2023-02-03T22:49:47.733Z,7.07
2023-02-03T22:52:51.184Z,8.50
2023-02-03T22:55:54.842Z,8.80
2023-02-03T22:58:58.375Z,7.80
2023-02-03T23:02:01.870Z,8.68
2023-02-03T23:05:06.534Z,10.03
2023-02-03T23:08:10.151Z,11.05
2023-02-03T23:11:13.563Z,13.57
2023-02-03T23:14:17.062Z,10.70
2023-02-03T23:17:20.533Z,8.30
2023-02-03T23:20:24.146Z,7.20
2023-02-03T23:23:27.546Z,9.20
2023-02-03T23:26:31.064Z,9.95
2023-02-03T23:29:37.488Z,9.18
2023-02-03T23:32:41.260Z,9.00
2023-02-03T23:35:49.195Z,9.38
2023-02-03T23:38:52.601Z,9.18
2023-02-03T23:41:59.097Z,9.43
2023-02-03T23:45:03.248Z,8.68
2023-02-03T23:48:07.028Z,8.07
2023-02-03T23:51:10.532Z,8.13
2023-02-03T23:54:13.977Z,9.15
2023-02-03T23:57:17.357Z,9.65
